createdAt,value
2023-04-14T00:00:25.147Z,0.50
2023-04-14T00:01:24.911Z,0.50
2023-04-14T00:02:25.085Z,0.50
2023-04-14T00:03:25.177Z,0.40
2023-04-14T00:04:25.029Z,0.37
2023-04-14T00:05:24.887Z,0.36
2023-04-14T00:06:24.882Z,0.36
2023-04-14T00:07:25.646Z,0.37
2023-04-14T00:08:24.864Z,0.40
2023-04-14T00:09:24.856Z,0.43
2023-04-14T00:10:24.874Z,0.48
2023-04-14T00:11:24.843Z,0.50
2023-04-14T00:12:31.676Z,0.50
2023-04-14T00:13:24.826Z,0.50
2023-04-14T00:14:24.833Z,0.46
2023-04-14T00:15:24.829Z,0.43
2023-04-14T00:16:24.842Z,0.40
2023-04-14T00:17:25.657Z,0.39
2023-04-14T00:18:25.660Z,0.45
2023-04-14T00:19:24.789Z,0.50
2023-04-14T00:20:25.151Z,0.50
2023-04-14T00:21:24.769Z,0.50
2023-04-14T00:22:24.758Z,0.50
2023-04-14T00:23:24.753Z,0.50
2023-04-14T00:24:25.652Z,0.50
2023-04-14T00:25:24.737Z,0.51
2023-04-14T00:26:24.730Z,0.50
2023-04-14T00:27:24.731Z,0.50
2023-04-14T00:28:24.817Z,0.51
2023-04-14T00:29:24.813Z,0.50
2023-04-14T00:30:24.845Z,0.51
2023-04-14T00:31:25.715Z,0.50
2023-04-14T00:32:24.930Z,0.50
2023-04-14T00:33:24.950Z,0.51
2023-04-14T00:34:24.993Z,0.50
2023-04-14T00:35:25.040Z,0.51
2023-04-14T00:36:25.074Z,0.50
2023-04-14T00:37:25.102Z,0.50
2023-04-14T00:38:25.140Z,0.50
2023-04-14T00:39:25.176Z,0.51
2023-04-14T00:40:25.223Z,0.51
2023-04-14T00:41:25.263Z,0.51
2023-04-14T00:42:25.297Z,0.50
2023-04-14T00:43:25.336Z,0.50
2023-04-14T00:44:25.429Z,0.51
2023-04-14T00:45:25.440Z,0.51
2023-04-14T00:46:25.488Z,0.51
2023-04-14T00:47:25.519Z,0.50
2023-04-14T00:48:25.528Z,0.51
2023-04-14T00:49:25.575Z,0.50
2023-04-14T00:50:25.604Z,0.51
2023-04-14T00:51:25.649Z,0.50
2023-04-14T00:52:25.676Z,0.51
2023-04-14T00:53:25.721Z,0.50
2023-04-14T00:54:25.777Z,0.51
2023-04-14T00:55:25.798Z,0.51
2023-04-14T00:56:25.834Z,0.50
2023-04-14T00:57:25.867Z,0.50
2023-04-14T00:58:25.902Z,0.52
2023-04-14T00:59:25.934Z,0.50
2023-04-14T01:00:26.002Z,0.51
2023-04-14T01:01:26.032Z,0.51
2023-04-14T01:02:26.304Z,0.51
2023-04-14T01:03:26.202Z,0.51
2023-04-14T01:04:33.577Z,0.51
2023-04-14T01:05:26.240Z,0.51
2023-04-14T01:06:26.133Z,0.51
2023-04-14T01:07:26.119Z,0.51
2023-04-14T01:08:26.103Z,0.51
2023-04-14T01:09:26.100Z,0.50
2023-04-14T01:10:26.097Z,0.50
2023-04-14T01:11:26.093Z,0.50
2023-04-14T01:12:26.080Z,0.50
2023-04-14T01:13:26.663Z,0.50
2023-04-14T01:14:26.070Z,0.50
2023-04-14T01:15:26.083Z,0.50
2023-04-14T01:16:26.123Z,0.51
2023-04-14T01:17:26.071Z,0.51
2023-04-14T01:18:26.039Z,0.50
2023-04-14T01:19:26.031Z,0.51
2023-04-14T01:20:26.033Z,0.51
2023-04-14T01:21:26.038Z,0.50
2023-04-14T01:22:26.005Z,0.50
2023-04-14T01:23:25.999Z,0.50
2023-04-14T01:24:25.991Z,0.51
2023-04-14T01:25:26.067Z,0.51
2023-04-14T01:26:25.989Z,0.51
2023-04-14T01:27:25.981Z,0.50
2023-04-14T01:28:25.964Z,0.51
2023-04-14T01:29:25.960Z,0.51
2023-04-14T01:30:25.957Z,0.51
2023-04-14T01:31:25.999Z,0.51
2023-04-14T01:32:25.978Z,0.52
2023-04-14T01:33:25.933Z,0.52
2023-04-14T01:34:25.943Z,0.51
2023-04-14T01:35:25.989Z,0.52
2023-04-14T01:36:26.021Z,0.50
2023-04-14T01:37:26.059Z,0.50
2023-04-14T01:38:26.098Z,0.51
2023-04-14T01:39:26.144Z,0.50
2023-04-14T01:40:26.185Z,0.51
2023-04-14T01:41:26.220Z,0.50
2023-04-14T01:42:26.271Z,0.50
2023-04-14T01:43:26.308Z,0.50
2023-04-14T01:44:26.352Z,0.51
2023-04-14T01:45:26.391Z,0.51
2023-04-14T01:46:26.412Z,0.51
2023-04-14T01:47:26.508Z,0.51
2023-04-14T01:48:29.209Z,0.51
2023-04-14T01:49:26.557Z,0.52
2023-04-14T01:50:26.486Z,0.51
2023-04-14T01:51:26.472Z,0.50
2023-04-14T01:52:26.472Z,0.50
2023-04-14T01:53:26.458Z,0.51
2023-04-14T01:54:26.450Z,0.50
2023-04-14T01:55:26.467Z,0.50
2023-04-14T01:56:26.438Z,0.51
2023-04-14T01:57:26.451Z,0.52
2023-04-14T01:58:26.426Z,0.52
2023-04-14T01:59:26.411Z,0.51
2023-04-14T02:00:26.406Z,0.51
2023-04-14T02:01:26.454Z,0.51
2023-04-14T02:02:26.499Z,0.50
2023-04-14T02:03:26.440Z,0.51
2023-04-14T02:04:26.395Z,0.50
2023-04-14T02:05:26.690Z,0.50
2023-04-14T02:06:26.361Z,0.50
2023-04-14T02:07:26.355Z,0.51
2023-04-14T02:08:26.341Z,0.50
2023-04-14T02:09:26.344Z,0.51
2023-04-14T02:10:26.329Z,0.51
2023-04-14T02:11:26.324Z,0.51
2023-04-14T02:12:26.320Z,0.50
2023-04-14T02:13:26.318Z,0.51
2023-04-14T02:14:26.309Z,0.50
2023-04-14T02:15:26.312Z,0.50
2023-04-14T02:16:26.333Z,0.50
2023-04-14T02:17:26.330Z,0.51
2023-04-14T02:18:26.286Z,0.51
2023-04-14T02:19:26.272Z,0.51
2023-04-14T02:20:26.325Z,0.50
2023-04-14T02:21:26.328Z,0.51
2023-04-14T02:22:26.376Z,0.51
2023-04-14T02:23:26.410Z,0.51
2023-04-14T02:24:26.454Z,0.51
2023-04-14T02:25:26.491Z,0.50
2023-04-14T02:26:26.525Z,0.51
2023-04-14T02:27:26.561Z,0.50
2023-04-14T02:28:26.607Z,0.51
2023-04-14T02:29:26.648Z,0.51
2023-04-14T02:30:26.705Z,0.51
2023-04-14T02:31:26.725Z,0.51
2023-04-14T02:32:26.775Z,0.50
2023-04-14T02:33:26.816Z,0.50
2023-04-14T02:34:26.848Z,0.51
2023-04-14T02:35:26.911Z,0.51
2023-04-14T02:36:27.058Z,0.51
2023-04-14T02:37:26.972Z,0.50
2023-04-14T02:38:27.016Z,0.52
2023-04-14T02:39:27.049Z,0.51
2023-04-14T02:40:27.119Z,0.51
2023-04-14T02:41:27.129Z,0.50
2023-04-14T02:42:27.165Z,0.51
2023-04-14T02:43:27.231Z,0.51
2023-04-14T02:44:27.247Z,0.51
2023-04-14T02:45:27.275Z,0.51
2023-04-14T02:46:27.343Z,0.50
2023-04-14T02:47:27.387Z,0.51
2023-04-14T02:48:27.405Z,0.51
2023-04-14T02:49:27.443Z,0.50
2023-04-14T02:50:27.475Z,0.51
2023-04-14T02:51:27.527Z,0.52
2023-04-14T02:52:27.593Z,0.50
2023-04-14T02:53:27.609Z,0.50
2023-04-14T02:54:27.650Z,0.51
2023-04-14T02:55:27.699Z,0.50
2023-04-14T02:56:27.747Z,0.51
2023-04-14T02:57:27.787Z,0.51
2023-04-14T02:58:27.813Z,0.51
2023-04-14T02:59:27.881Z,0.50
2023-04-14T03:00:27.890Z,0.51
2023-04-14T03:01:27.939Z,0.51
2023-04-14T03:02:28.096Z,0.52
2023-04-14T03:03:28.096Z,0.51
2023-04-14T03:04:28.137Z,0.50
2023-04-14T03:05:28.097Z,0.51
2023-04-14T03:06:28.135Z,0.51
2023-04-14T03:07:28.174Z,0.51
2023-04-14T03:08:28.239Z,0.50
2023-04-14T03:09:28.262Z,0.50
2023-04-14T03:10:28.299Z,0.51
2023-04-14T03:11:28.336Z,0.51
2023-04-14T03:12:28.372Z,0.52
2023-04-14T03:13:28.439Z,0.51
2023-04-14T03:14:28.448Z,0.51
2023-04-14T03:15:28.499Z,0.50
2023-04-14T03:16:28.610Z,0.52
2023-04-14T03:17:28.604Z,0.51
2023-04-14T03:18:28.601Z,0.51
2023-04-14T03:19:28.648Z,0.52
2023-04-14T03:20:28.702Z,0.52
2023-04-14T03:21:28.745Z,0.51
2023-04-14T03:22:28.770Z,0.51
2023-04-14T03:23:28.809Z,0.50
2023-04-14T03:24:29.735Z,0.50
2023-04-14T03:25:28.879Z,0.51
2023-04-14T03:26:28.937Z,0.51
2023-04-14T03:27:29.214Z,0.51
2023-04-14T03:28:29.013Z,0.51
2023-04-14T03:29:29.046Z,0.50
2023-04-14T03:30:29.080Z,0.52
2023-04-14T03:31:29.141Z,0.51
2023-04-14T03:32:29.201Z,0.51
2023-04-14T03:33:29.256Z,0.50
2023-04-14T03:34:29.247Z,0.51
2023-04-14T03:35:29.298Z,0.51
2023-04-14T03:36:29.332Z,0.51
2023-04-14T03:37:29.364Z,0.51
2023-04-14T03:38:29.483Z,0.51
2023-04-14T03:39:29.455Z,0.50
2023-04-14T03:40:29.511Z,0.50
2023-04-14T03:41:29.525Z,0.51
2023-04-14T03:42:29.572Z,0.51
2023-04-14T03:43:29.594Z,0.51
2023-04-14T03:44:29.637Z,0.51
2023-04-14T03:45:29.691Z,0.51
2023-04-14T03:46:29.771Z,0.51
2023-04-14T03:47:31.529Z,0.51
2023-04-14T03:48:29.828Z,0.52
2023-04-14T03:49:29.750Z,0.52
2023-04-14T03:50:29.749Z,0.51
2023-04-14T03:51:29.733Z,0.51
2023-04-14T03:52:29.727Z,0.51
2023-04-14T03:53:29.721Z,0.50
2023-04-14T03:54:29.708Z,0.50
2023-04-14T03:55:29.713Z,0.51
2023-04-14T03:56:29.718Z,0.51
2023-04-14T03:57:29.695Z,0.51
2023-04-14T03:58:29.683Z,0.50
2023-04-14T03:59:29.674Z,0.51
2023-04-14T04:00:29.675Z,0.51
2023-04-14T04:01:29.662Z,0.50
2023-04-14T04:02:29.809Z,0.50
2023-04-14T04:03:29.787Z,0.51
2023-04-14T04:04:29.775Z,0.51
2023-04-14T04:05:29.640Z,0.52
2023-04-14T04:06:29.623Z,0.52
2023-04-14T04:07:29.647Z,0.51
2023-04-14T04:08:29.613Z,0.51
2023-04-14T04:09:29.602Z,0.50
2023-04-14T04:10:29.599Z,0.50
2023-04-14T04:11:29.594Z,0.51
2023-04-14T04:12:29.613Z,0.50
2023-04-14T04:13:29.576Z,0.51
2023-04-14T04:14:29.571Z,0.50
2023-04-14T04:15:29.572Z,0.51
2023-04-14T04:16:29.775Z,0.50
2023-04-14T04:17:29.660Z,0.51
2023-04-14T04:18:29.677Z,0.51
2023-04-14T04:19:30.230Z,0.50
2023-04-14T04:20:29.754Z,0.50
2023-04-14T04:21:29.799Z,0.51
2023-04-14T04:22:29.849Z,0.50
2023-04-14T04:23:29.927Z,0.51
2023-04-14T04:24:29.937Z,0.51
2023-04-14T04:25:29.977Z,0.51
2023-04-14T04:26:30.038Z,0.50
2023-04-14T04:27:30.075Z,0.51
2023-04-14T04:28:30.135Z,0.52
2023-04-14T04:29:30.161Z,0.51
2023-04-14T04:30:30.212Z,0.51
2023-04-14T04:31:30.289Z,0.51
2023-04-14T04:32:30.368Z,0.52
2023-04-14T04:33:30.356Z,0.50
2023-04-14T04:34:30.389Z,0.51
2023-04-14T04:35:30.437Z,0.51
2023-04-14T04:36:30.484Z,0.50
2023-04-14T04:37:30.525Z,0.51
2023-04-14T04:38:30.573Z,0.51
2023-04-14T04:39:30.630Z,0.50
2023-04-14T04:40:30.688Z,0.50
2023-04-14T04:41:30.716Z,0.51
2023-04-14T04:42:30.754Z,0.52
2023-04-14T04:43:30.798Z,0.50
2023-04-14T04:44:30.878Z,0.51
2023-04-14T04:45:30.913Z,0.50
2023-04-14T04:46:31.010Z,0.52
2023-04-14T04:47:31.052Z,0.51
2023-04-14T04:48:31.033Z,0.51
2023-04-14T04:49:31.077Z,0.51
2023-04-14T04:50:31.125Z,0.51
2023-04-14T04:51:31.200Z,0.51
2023-04-14T04:52:31.229Z,0.51
2023-04-14T04:53:31.274Z,0.51
2023-04-14T04:54:32.244Z,0.51
2023-04-14T04:55:31.396Z,0.51
2023-04-14T04:56:31.423Z,0.51
2023-04-14T04:57:31.461Z,0.50
2023-04-14T04:58:31.502Z,0.51
2023-04-14T04:59:31.548Z,0.51
2023-04-14T05:00:31.676Z,0.50
2023-04-14T05:01:31.698Z,0.51
2023-04-14T05:02:31.803Z,0.50
2023-04-14T05:03:31.792Z,0.51
2023-04-14T05:04:31.851Z,0.51
2023-04-14T05:05:31.825Z,0.50
2023-04-14T05:06:31.866Z,0.50
2023-04-14T05:07:31.927Z,0.50
2023-04-14T05:08:31.965Z,0.51
2023-04-14T05:09:32.021Z,0.50
2023-04-14T05:10:32.055Z,0.51
2023-04-14T05:11:32.094Z,0.50
2023-04-14T05:12:32.145Z,0.50
2023-04-14T05:13:32.193Z,0.51
2023-04-14T05:14:32.244Z,0.50
2023-04-14T05:15:32.385Z,0.51
2023-04-14T05:16:32.354Z,0.51
2023-04-14T05:17:32.396Z,0.51
2023-04-14T05:18:32.431Z,0.51
2023-04-14T05:19:32.488Z,0.51
2023-04-14T05:20:34.695Z,0.53
2023-04-14T05:21:32.513Z,0.53
2023-04-14T05:22:32.507Z,0.53
2023-04-14T05:23:32.516Z,0.53
2023-04-14T05:24:32.487Z,0.52
2023-04-14T05:25:32.760Z,0.52
2023-04-14T05:26:49.134Z,0.53
2023-04-14T05:27:32.707Z,0.54
2023-04-14T05:28:32.761Z,0.54
2023-04-14T05:29:32.801Z,0.54
2023-04-14T05:30:32.855Z,0.54
2023-04-14T05:31:33.300Z,0.54
2023-04-14T05:32:32.993Z,0.54
2023-04-14T05:33:32.981Z,0.53
2023-04-14T05:34:33.018Z,0.53
2023-04-14T05:35:33.065Z,0.55
2023-04-14T05:36:33.760Z,0.54
2023-04-14T05:37:34.469Z,0.54
2023-04-14T05:38:33.140Z,0.56
2023-04-14T05:39:33.130Z,0.56
2023-04-14T05:40:33.264Z,0.56
2023-04-14T05:41:33.116Z,0.57
2023-04-14T05:42:33.110Z,0.58
2023-04-14T05:43:33.284Z,0.57
2023-04-14T05:44:33.090Z,0.58
2023-04-14T05:45:33.089Z,0.58
2023-04-14T05:46:33.381Z,0.59
2023-04-14T05:47:33.139Z,0.59
2023-04-14T05:48:33.688Z,0.60
2023-04-14T05:49:33.048Z,0.61
2023-04-14T05:50:33.050Z,0.61
2023-04-14T05:51:33.063Z,0.63
2023-04-14T05:52:33.501Z,0.65
2023-04-14T05:53:33.295Z,0.65
2023-04-14T05:54:33.021Z,0.66
2023-04-14T05:55:33.268Z,0.69
2023-04-14T05:56:33.000Z,0.73
2023-04-14T05:57:33.004Z,0.78
2023-04-14T05:58:33.267Z,0.80
2023-04-14T05:59:32.983Z,0.81
2023-04-14T06:00:33.293Z,0.91
2023-04-14T06:01:33.418Z,0.97
2023-04-14T06:02:33.326Z,0.99
2023-04-14T06:03:33.400Z,1.05
2023-04-14T06:04:36.386Z,1.10
2023-04-14T06:05:33.168Z,1.10
2023-04-14T06:07:33.111Z,1.11
2023-04-14T06:08:32.952Z,1.14
2023-04-14T06:09:32.944Z,1.19
2023-04-14T06:10:32.957Z,1.28
2023-04-14T06:11:33.277Z,1.46
2023-04-14T06:12:48.487Z,1.54
2023-04-14T06:13:35.699Z,1.55
2023-04-14T06:14:33.889Z,1.55
2023-04-14T06:15:33.278Z,1.58
2023-04-14T06:16:32.883Z,1.64
2023-04-14T06:17:33.311Z,1.74
2023-04-14T06:18:32.871Z,1.90
2023-04-14T06:19:32.851Z,2.07
2023-04-14T06:20:32.980Z,2.02
2023-04-14T06:21:32.839Z,2.12
2023-04-14T06:22:32.835Z,2.23
2023-04-14T06:23:32.815Z,2.24
2023-04-14T06:24:33.773Z,2.27
2023-04-14T06:25:33.283Z,2.33
2023-04-14T06:26:33.277Z,2.34
2023-04-14T06:27:32.782Z,2.45
2023-04-14T06:28:32.781Z,2.53
2023-04-14T06:29:32.775Z,2.58
2023-04-14T06:30:32.764Z,2.72
2023-04-14T06:31:32.785Z,2.74
2023-04-14T06:32:32.776Z,2.83
2023-04-14T06:33:32.745Z,3.00
2023-04-14T06:34:32.786Z,3.09
2023-04-14T06:35:34.067Z,3.16
2023-04-14T06:36:33.379Z,3.21
2023-04-14T06:37:32.723Z,3.19
2023-04-14T06:38:32.736Z,3.25
2023-04-14T06:39:32.728Z,3.32
2023-04-14T06:40:33.786Z,3.42
2023-04-14T06:41:32.752Z,3.47
2023-04-14T06:42:32.745Z,3.54
2023-04-14T06:43:32.775Z,3.58
2023-04-14T06:44:32.789Z,3.62
2023-04-14T06:45:33.184Z,3.59
2023-04-14T06:46:32.958Z,3.78
2023-04-14T06:47:32.789Z,3.77
2023-04-14T06:48:32.755Z,3.72
2023-04-14T06:49:32.773Z,2.19
2023-04-14T06:50:32.848Z,0.93
2023-04-14T06:51:33.316Z,0.62
2023-04-14T06:52:32.998Z,0.52
2023-04-14T06:53:32.965Z,0.50
2023-04-14T06:54:32.984Z,0.50
2023-04-14T06:55:33.291Z,0.50
2023-04-14T06:56:33.329Z,0.54
2023-04-14T06:57:33.133Z,0.61
2023-04-14T06:58:33.257Z,0.68
2023-04-14T06:59:33.207Z,0.73
2023-04-14T07:00:33.289Z,0.90
2023-04-14T07:01:33.325Z,0.88
2023-04-14T07:02:33.326Z,0.88
2023-04-14T07:03:33.283Z,0.90
2023-04-14T07:04:33.330Z,0.94
2023-04-14T07:05:33.797Z,0.97
2023-04-14T07:06:33.794Z,1.00
2023-04-14T07:07:33.356Z,1.04
2023-04-14T07:08:33.440Z,1.09
2023-04-14T07:09:33.811Z,1.10
2023-04-14T07:10:33.574Z,1.13
2023-04-14T07:11:33.594Z,1.19
2023-04-14T07:12:33.653Z,1.21
2023-04-14T07:13:33.891Z,1.25
2023-04-14T07:14:33.742Z,1.28
2023-04-14T07:15:33.826Z,1.33
2023-04-14T07:16:33.826Z,1.02
2023-04-14T07:17:34.322Z,1.13
2023-04-14T07:18:33.933Z,1.26
2023-04-14T07:19:33.984Z,1.32
2023-04-14T07:20:34.027Z,1.36
2023-04-14T07:21:34.077Z,1.27
2023-04-14T07:22:34.116Z,1.31
2023-04-14T07:23:34.156Z,1.32
2023-04-14T07:25:06.126Z,1.37
2023-04-14T07:25:34.201Z,1.37
2023-04-14T07:26:34.299Z,1.39
2023-04-14T07:27:34.207Z,1.41
2023-04-14T07:28:34.178Z,1.45
2023-04-14T07:29:34.175Z,1.55
2023-04-14T07:30:34.156Z,1.62
2023-04-14T07:31:34.345Z,1.64
2023-04-14T07:32:34.169Z,1.72
2023-04-14T07:33:34.142Z,1.74
2023-04-14T07:34:34.139Z,1.79
2023-04-14T07:35:34.332Z,1.83
2023-04-14T07:36:34.150Z,1.90
2023-04-14T07:37:34.322Z,1.96
2023-04-14T07:38:34.113Z,1.95
2023-04-14T07:39:37.338Z,1.97
2023-04-14T07:40:34.356Z,1.92
2023-04-14T07:41:35.109Z,1.79
2023-04-14T07:42:34.101Z,1.97
2023-04-14T07:43:34.072Z,1.97
2023-04-14T07:44:34.315Z,2.02
2023-04-14T07:45:34.053Z,2.01
2023-04-14T07:46:34.317Z,2.05
2023-04-14T07:47:34.081Z,2.10
2023-04-14T07:48:37.247Z,2.14
2023-04-14T07:49:34.310Z,2.14
2023-04-14T07:50:34.042Z,2.15
2023-04-14T07:51:35.028Z,2.16
2023-04-14T07:52:34.041Z,2.24
2023-04-14T07:53:34.312Z,2.29
2023-04-14T07:54:34.001Z,2.39
2023-04-14T07:55:34.006Z,2.39
2023-04-14T07:56:34.356Z,2.41
2023-04-14T07:57:33.999Z,2.45
2023-04-14T07:58:34.978Z,2.49
2023-04-14T07:59:34.825Z,2.56
2023-04-14T08:00:33.962Z,2.64
2023-04-14T08:01:34.309Z,2.79
2023-04-14T08:02:34.074Z,2.79
2023-04-14T08:03:34.159Z,2.89
2023-04-14T08:04:33.978Z,2.97
2023-04-14T08:05:34.014Z,3.08
2023-04-14T08:06:34.307Z,3.06
2023-04-14T08:07:33.909Z,3.14
2023-04-14T08:08:33.895Z,3.19
2023-04-14T08:09:33.913Z,3.21
2023-04-14T08:10:33.896Z,3.18
2023-04-14T08:11:34.308Z,3.23
2023-04-14T08:12:33.890Z,3.34
2023-04-14T08:13:33.864Z,3.31
2023-04-14T08:14:34.392Z,3.39
2023-04-14T08:15:33.847Z,3.52
2023-04-14T08:16:33.864Z,3.48
2023-04-14T08:17:34.330Z,3.63
2023-04-14T08:18:33.834Z,3.79
2023-04-14T08:19:33.837Z,3.82
2023-04-14T08:20:33.875Z,3.77
2023-04-14T08:21:34.307Z,3.86
2023-04-14T08:22:33.896Z,3.89
2023-04-14T08:23:33.790Z,3.83
2023-04-14T08:24:34.899Z,3.68
2023-04-14T08:25:33.822Z,3.93
2023-04-14T08:26:33.763Z,4.02
2023-04-14T08:27:33.760Z,4.01
2023-04-14T08:28:33.777Z,3.97
2023-04-14T08:29:33.820Z,3.92
2023-04-14T08:30:33.823Z,4.03
2023-04-14T08:31:33.747Z,4.05
2023-04-14T08:32:33.906Z,4.05
2023-04-14T08:33:34.331Z,4.15
2023-04-14T08:34:33.721Z,4.24
2023-04-14T08:35:37.166Z,4.20
2023-04-14T08:36:33.748Z,4.21
2023-04-14T08:37:33.699Z,4.24
2023-04-14T08:38:33.693Z,4.27
2023-04-14T08:39:33.692Z,1.93
2023-04-14T08:40:33.843Z,1.54
2023-04-14T08:41:33.665Z,1.06
2023-04-14T08:42:33.654Z,1.47
2023-04-14T08:43:33.650Z,0.52
2023-04-14T08:44:33.676Z,0.49
2023-04-14T08:45:33.892Z,0.51
2023-04-14T08:46:33.648Z,0.51
2023-04-14T08:47:33.673Z,0.51
2023-04-14T08:48:33.832Z,0.50
2023-04-14T08:49:33.638Z,0.53
2023-04-14T08:50:33.625Z,0.61
2023-04-14T08:51:34.608Z,0.67
2023-04-14T08:52:34.079Z,0.73
2023-04-14T08:53:33.858Z,0.80
2023-04-14T08:54:33.892Z,0.84
2023-04-14T08:55:33.585Z,0.90
2023-04-14T08:56:33.588Z,0.95
2023-04-14T08:57:33.566Z,0.98
2023-04-14T08:58:33.566Z,1.01
2023-04-14T08:59:33.558Z,1.04
2023-04-14T09:00:33.859Z,1.08
2023-04-14T09:01:36.007Z,1.12
2023-04-14T09:02:33.694Z,1.20
2023-04-14T09:03:33.720Z,1.21
2023-04-14T09:04:33.697Z,1.25
2023-04-14T09:05:33.522Z,1.28
2023-04-14T09:06:33.522Z,1.37
2023-04-14T09:07:33.503Z,1.39
2023-04-14T09:08:33.495Z,1.44
2023-04-14T09:09:33.655Z,1.49
2023-04-14T09:10:33.921Z,1.56
2023-04-14T09:11:33.500Z,1.61
2023-04-14T09:12:33.506Z,1.66
2023-04-14T09:13:33.477Z,1.71
2023-04-14T09:14:33.469Z,1.76
2023-04-14T09:15:34.215Z,1.91
2023-04-14T09:16:33.536Z,1.89
2023-04-14T09:17:33.485Z,1.95
2023-04-14T09:18:34.476Z,2.02
2023-04-14T09:19:33.424Z,2.03
2023-04-14T09:20:36.840Z,2.05
2023-04-14T09:21:52.652Z,2.04
2023-04-14T09:22:33.408Z,2.04
2023-04-14T09:23:33.402Z,2.11
2023-04-14T09:24:33.661Z,2.19
2023-04-14T09:25:33.838Z,2.37
2023-04-14T09:26:33.388Z,2.58
2023-04-14T09:27:33.377Z,2.70
2023-04-14T09:28:33.371Z,2.73
2023-04-14T09:29:33.379Z,2.77
2023-04-14T09:30:33.856Z,2.81
2023-04-14T09:31:33.406Z,2.91
2023-04-14T09:32:33.397Z,3.04
2023-04-14T09:33:33.365Z,3.06
2023-04-14T09:34:34.350Z,8.67
2023-04-14T09:35:33.349Z,6.19
2023-04-14T09:36:33.493Z,4.42
2023-04-14T09:37:33.304Z,3.99
2023-04-14T09:38:33.351Z,4.22
2023-04-14T09:39:33.334Z,4.12
2023-04-14T09:40:33.344Z,4.25
2023-04-14T09:41:33.276Z,4.26
2023-04-14T09:42:33.293Z,4.17
2023-04-14T09:43:33.351Z,4.31
2023-04-14T09:44:33.294Z,4.38
2023-04-14T09:45:33.851Z,4.35
2023-04-14T09:46:33.349Z,4.45
2023-04-14T09:47:33.570Z,4.56
2023-04-14T09:48:33.430Z,4.50
2023-04-14T09:49:33.446Z,4.70
2023-04-14T09:50:33.866Z,4.60
2023-04-14T09:51:33.569Z,4.84
2023-04-14T09:52:33.623Z,4.96
2023-04-14T09:53:33.685Z,5.08
2023-04-14T09:54:33.759Z,5.15
2023-04-14T09:55:33.850Z,5.09
2023-04-14T09:56:34.346Z,5.16
2023-04-14T09:57:33.929Z,5.08
2023-04-14T09:58:34.002Z,5.57
2023-04-14T09:59:34.102Z,5.57
2023-04-14T10:00:34.113Z,5.53
2023-04-14T10:01:34.714Z,5.59
2023-04-14T10:02:34.509Z,5.66
2023-04-14T10:03:34.554Z,5.74
2023-04-14T10:04:34.450Z,5.54
2023-04-14T10:05:35.363Z,5.77
2023-04-14T10:06:34.457Z,5.75
2023-04-14T10:07:34.505Z,5.76
2023-04-14T10:08:34.859Z,6.00
2023-04-14T10:09:34.607Z,6.00
2023-04-14T10:10:34.664Z,6.22
2023-04-14T10:11:34.719Z,6.06
2023-04-14T10:12:34.764Z,6.35
2023-04-14T10:13:34.865Z,6.32
2023-04-14T10:14:34.874Z,6.65
2023-04-14T10:15:35.368Z,6.53
2023-04-14T10:16:35.089Z,6.76
2023-04-14T10:17:35.078Z,7.25
2023-04-14T10:18:35.073Z,7.27
2023-04-14T10:19:35.131Z,7.42
2023-04-14T10:20:36.378Z,7.42
2023-04-14T10:21:35.227Z,7.68
2023-04-14T10:22:35.281Z,7.78
2023-04-14T10:23:35.363Z,7.81
2023-04-14T10:24:35.860Z,8.03
2023-04-14T10:25:35.431Z,8.54
2023-04-14T10:26:35.493Z,8.14
2023-04-14T10:27:35.864Z,8.21
2023-04-14T10:28:35.568Z,2.93
2023-04-14T10:29:34.598Z,1.10
2023-04-14T10:30:35.628Z,0.91
2023-04-14T10:31:35.676Z,0.96
2023-04-14T10:32:35.905Z,1.09
2023-04-14T10:33:35.640Z,1.15
2023-04-14T10:34:35.655Z,1.19
2023-04-14T10:35:36.528Z,1.31
2023-04-14T10:36:35.690Z,1.36
2023-04-14T10:37:35.904Z,1.39
2023-04-14T10:38:35.684Z,1.48
2023-04-14T10:39:35.737Z,1.66
2023-04-14T10:40:35.865Z,1.77
2023-04-14T10:41:35.842Z,2.15
2023-04-14T10:42:36.367Z,2.16
2023-04-14T10:43:35.935Z,2.01
2023-04-14T10:44:36.011Z,2.04
2023-04-14T10:45:36.069Z,2.01
2023-04-14T10:46:36.420Z,2.00
2023-04-14T10:47:36.265Z,1.96
2023-04-14T10:48:36.240Z,2.02
2023-04-14T10:49:36.265Z,2.05
2023-04-14T10:50:36.311Z,2.06
2023-04-14T10:51:36.345Z,2.05
2023-04-14T10:52:36.897Z,2.07
2023-04-14T10:53:36.424Z,2.10
2023-04-14T10:54:36.460Z,2.16
2023-04-14T10:55:46.568Z,2.16
2023-04-14T10:56:36.869Z,2.17
2023-04-14T10:57:38.309Z,2.23
2023-04-14T10:58:36.483Z,2.18
2023-04-14T10:59:36.472Z,2.25
2023-04-14T11:00:36.496Z,2.36
2023-04-14T11:01:36.885Z,2.58
2023-04-14T11:02:37.037Z,2.85
2023-04-14T11:03:36.580Z,2.96
2023-04-14T11:04:36.468Z,2.97
2023-04-14T11:05:36.884Z,3.01
2023-04-14T11:06:36.421Z,2.94
2023-04-14T11:07:36.416Z,3.12
2023-04-14T11:08:36.436Z,3.32
2023-04-14T11:09:36.404Z,3.47
2023-04-14T11:10:36.412Z,3.66
2023-04-14T11:11:37.255Z,3.80
2023-04-14T11:12:36.382Z,3.79
2023-04-14T11:13:36.386Z,4.09
2023-04-14T11:14:36.381Z,4.16
2023-04-14T11:15:36.367Z,4.04
2023-04-14T11:16:38.604Z,4.19
2023-04-14T11:17:36.451Z,4.21
2023-04-14T11:18:36.388Z,4.24
2023-04-14T11:19:36.366Z,4.28
2023-04-14T11:20:36.327Z,4.48
2023-04-14T11:21:36.313Z,4.71
2023-04-14T11:22:36.884Z,4.77
2023-04-14T11:23:36.380Z,4.92
2023-04-14T11:24:36.332Z,4.92
2023-04-14T11:25:36.411Z,5.09
2023-04-14T11:26:36.322Z,5.06
2023-04-14T11:27:36.372Z,5.03
2023-04-14T11:28:36.458Z,5.01
2023-04-14T11:29:36.526Z,5.15
2023-04-14T11:30:36.884Z,5.10
2023-04-14T11:31:36.738Z,5.36
2023-04-14T11:32:36.711Z,5.32
2023-04-14T11:33:36.757Z,5.42
2023-04-14T11:34:36.809Z,5.49
2023-04-14T11:35:36.888Z,5.65
2023-04-14T11:36:36.995Z,5.77
2023-04-14T11:37:36.976Z,5.81
2023-04-14T11:38:37.387Z,5.93
2023-04-14T11:39:37.090Z,6.20
2023-04-14T11:40:37.203Z,6.31
2023-04-14T11:41:37.206Z,6.16
2023-04-14T11:42:37.258Z,6.65
2023-04-14T11:43:37.327Z,6.56
2023-04-14T11:44:37.367Z,6.30
2023-04-14T11:45:37.574Z,6.70
2023-04-14T11:46:37.573Z,7.03
2023-04-14T11:47:37.552Z,6.99
2023-04-14T11:48:37.579Z,7.15
2023-04-14T11:49:37.707Z,7.33
2023-04-14T11:50:37.667Z,7.57
2023-04-14T11:51:37.771Z,7.73
2023-04-14T11:52:37.778Z,7.81
2023-04-14T11:53:37.919Z,7.96
2023-04-14T11:54:37.973Z,8.11
2023-04-14T11:55:37.940Z,8.16
2023-04-14T11:56:38.030Z,7.93
2023-04-14T11:57:38.440Z,8.72
2023-04-14T11:58:38.117Z,8.74
2023-04-14T11:59:38.182Z,9.04
2023-04-14T12:00:38.233Z,8.87
2023-04-14T12:01:38.395Z,8.92
2023-04-14T12:02:38.520Z,9.06
2023-04-14T12:03:38.635Z,9.33
2023-04-14T12:04:38.726Z,9.50
2023-04-14T12:05:38.575Z,10.09
2023-04-14T12:06:38.550Z,10.46
2023-04-14T12:07:38.585Z,10.41
2023-04-14T12:08:38.637Z,10.56
2023-04-14T12:09:38.686Z,9.85
2023-04-14T12:10:38.733Z,10.10
2023-04-14T12:11:38.905Z,8.07
2023-04-14T12:12:38.893Z,7.99
2023-04-14T12:13:38.926Z,8.66
2023-04-14T12:14:38.982Z,7.60
2023-04-14T12:15:39.550Z,7.63
2023-04-14T12:16:39.174Z,7.71
2023-04-14T12:17:39.462Z,2.64
2023-04-14T12:18:39.174Z,1.90
2023-04-14T12:19:39.219Z,1.75
2023-04-14T12:20:39.248Z,1.42
2023-04-14T12:21:39.312Z,1.39
2023-04-14T12:22:39.389Z,1.99
2023-04-14T12:23:39.430Z,1.10
2023-04-14T12:24:39.469Z,0.66
2023-04-14T12:25:39.516Z,0.49
2023-04-14T12:26:39.599Z,0.51
2023-04-14T12:27:39.658Z,0.74
2023-04-14T12:28:39.743Z,0.76
2023-04-14T12:29:39.735Z,0.80
2023-04-14T12:30:39.760Z,0.81
2023-04-14T12:31:39.847Z,0.73
2023-04-14T12:32:39.977Z,0.80
2023-04-14T12:33:39.916Z,0.68
2023-04-14T12:34:39.969Z,0.66
2023-04-14T12:35:40.029Z,0.63
2023-04-14T12:36:48.776Z,0.60
2023-04-14T12:37:40.408Z,0.60
2023-04-14T12:38:40.077Z,0.59
2023-04-14T12:39:40.067Z,0.54
2023-04-14T12:40:40.063Z,0.52
2023-04-14T12:41:40.081Z,0.70
2023-04-14T12:42:40.424Z,0.67
2023-04-14T12:43:40.037Z,0.60
2023-04-14T12:44:40.060Z,0.60
2023-04-14T12:45:40.027Z,0.61
2023-04-14T12:46:40.421Z,0.65
2023-04-14T12:47:40.058Z,0.54
2023-04-14T12:48:40.024Z,0.62
2023-04-14T12:49:39.999Z,0.51
2023-04-14T12:50:40.013Z,0.54
2023-04-14T12:51:39.980Z,0.57
2023-04-14T12:52:40.431Z,0.50
2023-04-14T12:53:39.982Z,0.54
2023-04-14T12:54:39.965Z,0.51
2023-04-14T12:55:39.951Z,0.52
2023-04-14T12:56:39.946Z,0.55
2023-04-14T12:57:40.418Z,0.54
2023-04-14T12:58:39.981Z,0.52
2023-04-14T12:59:40.056Z,0.64
2023-04-14T13:00:40.147Z,0.65
2023-04-14T13:01:40.175Z,0.53
2023-04-14T13:02:40.633Z,0.57
2023-04-14T13:03:40.480Z,0.49
2023-04-14T13:04:40.330Z,0.52
2023-04-14T13:05:40.383Z,0.50
2023-04-14T13:06:40.437Z,0.58
2023-04-14T13:07:40.919Z,0.58
2023-04-14T13:08:40.919Z,0.51
2023-04-14T13:09:40.598Z,0.50
2023-04-14T13:10:40.658Z,0.53
2023-04-14T13:11:40.741Z,0.50
2023-04-14T13:12:40.755Z,0.51
2023-04-14T13:13:40.827Z,0.57
2023-04-14T13:14:40.886Z,0.50
2023-04-14T13:16:14.083Z,0.53
2023-04-14T13:16:40.991Z,0.41
2023-04-14T13:17:41.435Z,0.46
2023-04-14T13:18:40.920Z,0.34
2023-04-14T13:19:40.913Z,0.34